sensor_id;sensor_type;location;lat;lon;timestamp;P1;durP1;ratioP1;P2;durP2;ratioP2
21152;SDS011;10734;44.792;20.482;2024-02-26T00:00:41;18.75;;;9.98;;
21152;SDS011;10734;44.792;20.482;2024-02-26T00:03:08;18.92;;;9.95;;
21152;SDS011;10734;44.792;20.482;2024-02-26T00:05:35;23.20;;;10.73;;
21152;SDS011;10734;44.792;20.482;2024-02-26T00:08:02;24.05;;;10.68;;
21152;SDS011;10734;44.792;20.482;2024-02-26T00:10:31;16.80;;;9.75;;
21152;SDS011;10734;44.792;20.482;2024-02-26T00:12:59;19.30;;;10.40;;
21152;SDS011;10734;44.792;20.482;2024-02-26T00:15:25;23.02;;;9.57;;
21152;SDS011;10734;44.792;20.482;2024-02-26T00:17:54;22.45;;;10.80;;
21152;SDS011;10734;44.792;20.482;2024-02-26T00:20:24;21.77;;;10.93;;
21152;SDS011;10734;44.792;20.482;2024-02-26T00:22:53;21.02;;;10.35;;
21152;SDS011;10734;44.792;20.482;2024-02-26T00:25:19;19.88;;;9.30;;
21152;SDS011;10734;44.792;20.482;2024-02-26T00:27:46;16.77;;;8.95;;
21152;SDS011;10734;44.792;20.482;2024-02-26T00:30:13;19.38;;;10.23;;
21152;SDS011;10734;44.792;20.482;2024-02-26T00:32:41;18.85;;;9.85;;
21152;SDS011;10734;44.792;20.482;2024-02-26T00:35:07;26.70;;;11.43;;
21152;SDS011;10734;44.792;20.482;2024-02-26T00:37:37;22.48;;;11.07;;
21152;SDS011;10734;44.792;20.482;2024-02-26T00:40:03;23.35;;;10.70;;
21152;SDS011;10734;44.792;20.482;2024-02-26T00:42:30;19.10;;;11.07;;
21152;SDS011;10734;44.792;20.482;2024-02-26T00:44:56;24.30;;;10.40;;
21152;SDS011;10734;44.792;20.482;2024-02-26T00:47:23;23.55;;;9.40;;
21152;SDS011;10734;44.792;20.482;2024-02-26T00:49:51;19.25;;;10.95;;
21152;SDS011;10734;44.792;20.482;2024-02-26T00:52:18;17.85;;;10.50;;
21152;SDS011;10734;44.792;20.482;2024-02-26T00:54:45;19.33;;;10.57;;
21152;SDS011;10734;44.792;20.482;2024-02-26T00:57:14;18.10;;;10.57;;
21152;SDS011;10734;44.792;20.482;2024-02-26T00:59:43;23.63;;;10.52;;
21152;SDS011;10734;44.792;20.482;2024-02-26T01:02:10;17.15;;;9.80;;
21152;SDS011;10734;44.792;20.482;2024-02-26T01:04:38;20.08;;;9.88;;
21152;SDS011;10734;44.792;20.482;2024-02-26T01:07:06;18.80;;;10.05;;
21152;SDS011;10734;44.792;20.482;2024-02-26T01:09:33;19.60;;;9.88;;
21152;SDS011;10734;44.792;20.482;2024-02-26T01:12:00;20.17;;;9.52;;
21152;SDS011;10734;44.792;20.482;2024-02-26T01:14:29;16.52;;;9.27;;
21152;SDS011;10734;44.792;20.482;2024-02-26T01:16:55;20.98;;;9.55;;
21152;SDS011;10734;44.792;20.482;2024-02-26T01:19:22;17.08;;;9.43;;
21152;SDS011;10734;44.792;20.482;2024-02-26T01:21:49;16.90;;;9.05;;
21152;SDS011;10734;44.792;20.482;2024-02-26T01:24:15;18.02;;;9.93;;
21152;SDS011;10734;44.792;20.482;2024-02-26T01:26:42;18.02;;;9.55;;
21152;SDS011;10734;44.792;20.482;2024-02-26T01:29:10;17.40;;;8.93;;
21152;SDS011;10734;44.792;20.482;2024-02-26T01:31:38;18.58;;;8.85;;
21152;SDS011;10734;44.792;20.482;2024-02-26T01:34:05;18.73;;;9.38;;
21152;SDS011;10734;44.792;20.482;2024-02-26T01:36:31;19.42;;;9.02;;
21152;SDS011;10734;44.792;20.482;2024-02-26T01:38:59;17.08;;;8.45;;
21152;SDS011;10734;44.792;20.482;2024-02-26T01:41:26;17.92;;;9.32;;
21152;SDS011;10734;44.792;20.482;2024-02-26T01:43:52;17.15;;;8.82;;
21152;SDS011;10734;44.792;20.482;2024-02-26T01:46:19;19.27;;;8.57;;
21152;SDS011;10734;44.792;20.482;2024-02-26T01:48:46;18.95;;;10.15;;
21152;SDS011;10734;44.792;20.482;2024-02-26T01:51:14;27.15;;;12.93;;
21152;SDS011;10734;44.792;20.482;2024-02-26T01:53:40;36.08;;;17.17;;
21152;SDS011;10734;44.792;20.482;2024-02-26T01:56:07;31.15;;;14.77;;
21152;SDS011;10734;44.792;20.482;2024-02-26T01:58:34;25.50;;;13.73;;
21152;SDS011;10734;44.792;20.482;2024-02-26T02:01:01;20.90;;;11.82;;
21152;SDS011;10734;44.792;20.482;2024-02-26T02:03:28;22.02;;;11.85;;
21152;SDS011;10734;44.792;20.482;2024-02-26T02:05:58;22.98;;;13.13;;
21152;SDS011;10734;44.792;20.482;2024-02-26T02:08:24;22.02;;;13.55;;
21152;SDS011;10734;44.792;20.482;2024-02-26T02:10:52;21.92;;;12.70;;
21152;SDS011;10734;44.792;20.482;2024-02-26T02:13:19;23.65;;;13.50;;
21152;SDS011;10734;44.792;20.482;2024-02-26T02:15:48;28.30;;;16.13;;
21152;SDS011;10734;44.792;20.482;2024-02-26T02:18:14;27.58;;;14.73;;
21152;SDS011;10734;44.792;20.482;2024-02-26T02:20:41;23.48;;;14.00;;
21152;SDS011;10734;44.792;20.482;2024-02-26T02:23:08;26.35;;;14.32;;
21152;SDS011;10734;44.792;20.482;2024-02-26T02:25:35;40.08;;;22.23;;
21152;SDS011;10734;44.792;20.482;2024-02-26T02:28:01;29.33;;;17.73;;
21152;SDS011;10734;44.792;20.482;2024-02-26T02:30:29;27.20;;;14.60;;
21152;SDS011;10734;44.792;20.482;2024-02-26T02:32:56;24.83;;;12.52;;
21152;SDS011;10734;44.792;20.482;2024-02-26T02:35:25;22.92;;;11.68;;
21152;SDS011;10734;44.792;20.482;2024-02-26T02:37:52;18.58;;;10.65;;
21152;SDS011;10734;44.792;20.482;2024-02-26T02:40:18;19.33;;;9.38;;
21152;SDS011;10734;44.792;20.482;2024-02-26T02:42:45;15.70;;;7.95;;
21152;SDS011;10734;44.792;20.482;2024-02-26T02:45:14;15.05;;;8.88;;
21152;SDS011;10734;44.792;20.482;2024-02-26T02:47:40;13.10;;;8.30;;
21152;SDS011;10734;44.792;20.482;2024-02-26T02:50:07;19.88;;;7.97;;
21152;SDS011;10734;44.792;20.482;2024-02-26T02:52:34;18.25;;;9.02;;
21152;SDS011;10734;44.792;20.482;2024-02-26T02:55:00;14.68;;;8.52;;
21152;SDS011;10734;44.792;20.482;2024-02-26T02:57:27;16.67;;;7.95;;
21152;SDS011;10734;44.792;20.482;2024-02-26T02:59:57;14.65;;;7.53;;
21152;SDS011;10734;44.792;20.482;2024-02-26T03:02:24;14.75;;;7.43;;
21152;SDS011;10734;44.792;20.482;2024-02-26T03:04:53;18.58;;;7.57;;
21152;SDS011;10734;44.792;20.482;2024-02-26T03:07:19;16.35;;;8.02;;
21152;SDS011;10734;44.792;20.482;2024-02-26T03:09:48;17.33;;;7.05;;
21152;SDS011;10734;44.792;20.482;2024-02-26T03:12:16;20.60;;;7.38;;
21152;SDS011;10734;44.792;20.482;2024-02-26T03:14:45;20.80;;;7.93;;
21152;SDS011;10734;44.792;20.482;2024-02-26T03:17:13;12.48;;;8.13;;
21152;SDS011;10734;44.792;20.482;2024-02-26T03:19:41;16.23;;;6.55;;
21152;SDS011;10734;44.792;20.482;2024-02-26T03:22:09;13.70;;;7.05;;
21152;SDS011;10734;44.792;20.482;2024-02-26T03:24:36;14.73;;;7.18;;
21152;SDS011;10734;44.792;20.482;2024-02-26T03:27:03;14.68;;;7.55;;
21152;SDS011;10734;44.792;20.482;2024-02-26T03:29:31;13.90;;;8.02;;
21152;SDS011;10734;44.792;20.482;2024-02-26T03:31:59;20.80;;;8.88;;
21152;SDS011;10734;44.792;20.482;2024-02-26T03:34:25;14.00;;;7.30;;
21152;SDS011;10734;44.792;20.482;2024-02-26T03:36:54;20.42;;;7.55;;
21152;SDS011;10734;44.792;20.482;2024-02-26T03:39:25;14.57;;;7.35;;
21152;SDS011;10734;44.792;20.482;2024-02-26T03:41:52;13.55;;;6.93;;
21152;SDS011;10734;44.792;20.482;2024-02-26T03:44:20;15.35;;;6.60;;
21152;SDS011;10734;44.792;20.482;2024-02-26T03:46:48;10.10;;;6.40;;
21152;SDS011;10734;44.792;20.482;2024-02-26T03:49:16;13.10;;;6.65;;
21152;SDS011;10734;44.792;20.482;2024-02-26T03:51:44;14.90;;;6.68;;
21152;SDS011;10734;44.792;20.482;2024-02-26T03:54:12;11.95;;;6.72;;
21152;SDS011;10734;44.792;20.482;2024-02-26T03:56:39;13.65;;;6.55;;
21152;SDS011;10734;44.792;20.482;2024-02-26T03:59:05;9.27;;;6.53;;
21152;SDS011;10734;44.792;20.482;2024-02-26T04:01:33;13.15;;;6.18;;
21152;SDS011;10734;44.792;20.482;2024-02-26T04:04:00;15.88;;;7.53;;
21152;SDS011;10734;44.792;20.482;2024-02-26T04:06:28;12.25;;;6.50;;
21152;SDS011;10734;44.792;20.482;2024-02-26T04:08:55;11.55;;;6.43;;
21152;SDS011;10734;44.792;20.482;2024-02-26T04:11:22;12.65;;;6.10;;
21152;SDS011;10734;44.792;20.482;2024-02-26T04:13:49;12.90;;;6.25;;
21152;SDS011;10734;44.792;20.482;2024-02-26T04:16:18;17.55;;;6.43;;
21152;SDS011;10734;44.792;20.482;2024-02-26T04:18:45;12.82;;;6.57;;
21152;SDS011;10734;44.792;20.482;2024-02-26T04:21:12;15.57;;;7.15;;
21152;SDS011;10734;44.792;20.482;2024-02-26T04:23:38;11.90;;;6.90;;
21152;SDS011;10734;44.792;20.482;2024-02-26T04:26:06;14.82;;;6.78;;
21152;SDS011;10734;44.792;20.482;2024-02-26T04:28:33;11.90;;;6.13;;
21152;SDS011;10734;44.792;20.482;2024-02-26T04:31:01;12.77;;;5.70;;
21152;SDS011;10734;44.792;20.482;2024-02-26T04:33:28;8.90;;;5.63;;
21152;SDS011;10734;44.792;20.482;2024-02-26T04:35:54;20.58;;;6.25;;
21152;SDS011;10734;44.792;20.482;2024-02-26T04:38:21;12.48;;;6.20;;
21152;SDS011;10734;44.792;20.482;2024-02-26T04:40:48;8.85;;;5.28;;
21152;SDS011;10734;44.792;20.482;2024-02-26T04:43:16;8.93;;;5.60;;
21152;SDS011;10734;44.792;20.482;2024-02-26T04:45:44;9.45;;;5.72;;
21152;SDS011;10734;44.792;20.482;2024-02-26T04:48:11;11.98;;;5.82;;
21152;SDS011;10734;44.792;20.482;2024-02-26T04:50:37;12.02;;;5.85;;
21152;SDS011;10734;44.792;20.482;2024-02-26T04:53:04;9.77;;;5.88;;
21152;SDS011;10734;44.792;20.482;2024-02-26T04:55:31;12.18;;;6.38;;
21152;SDS011;10734;44.792;20.482;2024-02-26T04:57:57;10.02;;;6.03;;
21152;SDS011;10734;44.792;20.482;2024-02-26T05:00:25;11.45;;;5.93;;
21152;SDS011;10734;44.792;20.482;2024-02-26T05:02:53;13.18;;;6.32;;
21152;SDS011;10734;44.792;20.482;2024-02-26T05:05:20;12.52;;;6.45;;
21152;SDS011;10734;44.792;20.482;2024-02-26T05:07:48;11.88;;;7.00;;
21152;SDS011;10734;44.792;20.482;2024-02-26T05:10:14;13.32;;;7.28;;
21152;SDS011;10734;44.792;20.482;2024-02-26T05:12:41;14.93;;;8.20;;
21152;SDS011;10734;44.792;20.482;2024-02-26T05:15:09;18.30;;;7.38;;
21152;SDS011;10734;44.792;20.482;2024-02-26T05:17:36;14.82;;;7.00;;
21152;SDS011;10734;44.792;20.482;2024-02-26T05:20:02;13.88;;;7.28;;
21152;SDS011;10734;44.792;20.482;2024-02-26T05:22:30;11.27;;;6.90;;
21152;SDS011;10734;44.792;20.482;2024-02-26T05:24:57;11.50;;;6.47;;
21152;SDS011;10734;44.792;20.482;2024-02-26T05:27:24;8.60;;;5.80;;
21152;SDS011;10734;44.792;20.482;2024-02-26T05:29:50;11.60;;;7.15;;
21152;SDS011;10734;44.792;20.482;2024-02-26T05:32:18;13.77;;;7.70;;
21152;SDS011;10734;44.792;20.482;2024-02-26T05:34:44;14.52;;;6.82;;
21152;SDS011;10734;44.792;20.482;2024-02-26T05:37:12;11.90;;;6.55;;
21152;SDS011;10734;44.792;20.482;2024-02-26T05:39:39;10.45;;;6.72;;
21152;SDS011;10734;44.792;20.482;2024-02-26T05:42:06;16.40;;;7.93;;
21152;SDS011;10734;44.792;20.482;2024-02-26T05:44:33;13.75;;;6.95;;
21152;SDS011;10734;44.792;20.482;2024-02-26T05:47:00;15.25;;;7.30;;
21152;SDS011;10734;44.792;20.482;2024-02-26T05:49:30;12.60;;;7.20;;
21152;SDS011;10734;44.792;20.482;2024-02-26T05:51:57;17.08;;;8.18;;
21152;SDS011;10734;44.792;20.482;2024-02-26T05:54:23;15.80;;;7.72;;
21152;SDS011;10734;44.792;20.482;2024-02-26T05:56:52;11.30;;;7.32;;
21152;SDS011;10734;44.792;20.482;2024-02-26T05:59:18;16.35;;;8.05;;
21152;SDS011;10734;44.792;20.482;2024-02-26T06:01:45;15.82;;;8.38;;
21152;SDS011;10734;44.792;20.482;2024-02-26T06:04:14;13.45;;;8.25;;
21152;SDS011;10734;44.792;20.482;2024-02-26T06:06:41;12.80;;;8.65;;
21152;SDS011;10734;44.792;20.482;2024-02-26T06:09:09;17.58;;;9.05;;
21152;SDS011;10734;44.792;20.482;2024-02-26T06:11:40;12.98;;;8.38;;
21152;SDS011;10734;44.792;20.482;2024-02-26T06:14:06;18.35;;;8.45;;
21152;SDS011;10734;44.792;20.482;2024-02-26T06:16:33;15.32;;;8.98;;
21152;SDS011;10734;44.792;20.482;2024-02-26T06:19:01;15.50;;;8.52;;
21152;SDS011;10734;44.792;20.482;2024-02-26T06:21:28;20.52;;;9.32;;
21152;SDS011;10734;44.792;20.482;2024-02-26T06:23:54;17.15;;;8.77;;
21152;SDS011;10734;44.792;20.482;2024-02-26T06:26:22;16.55;;;8.70;;
21152;SDS011;10734;44.792;20.482;2024-02-26T06:28:49;16.75;;;8.90;;
21152;SDS011;10734;44.792;20.482;2024-02-26T06:31:16;16.65;;;9.02;;
21152;SDS011;10734;44.792;20.482;2024-02-26T06:33:44;20.02;;;9.63;;
21152;SDS011;10734;44.792;20.482;2024-02-26T06:36:15;29.08;;;13.35;;
21152;SDS011;10734;44.792;20.482;2024-02-26T06:38:42;19.80;;;9.73;;
21152;SDS011;10734;44.792;20.482;2024-02-26T06:41:12;17.95;;;10.25;;
21152;SDS011;10734;44.792;20.482;2024-02-26T06:43:38;19.05;;;9.50;;
21152;SDS011;10734;44.792;20.482;2024-02-26T06:46:05;14.70;;;10.45;;
21152;SDS011;10734;44.792;20.482;2024-02-26T06:48:32;19.75;;;10.73;;
21152;SDS011;10734;44.792;20.482;2024-02-26T06:50:59;19.73;;;10.80;;
21152;SDS011;10734;44.792;20.482;2024-02-26T06:53:25;19.40;;;9.80;;
21152;SDS011;10734;44.792;20.482;2024-02-26T06:55:52;20.13;;;9.48;;
21152;SDS011;10734;44.792;20.482;2024-02-26T06:58:20;17.58;;;10.05;;
21152;SDS011;10734;44.792;20.482;2024-02-26T07:00:48;20.05;;;10.10;;
21152;SDS011;10734;44.792;20.482;2024-02-26T07:03:16;20.05;;;10.23;;
21152;SDS011;10734;44.792;20.482;2024-02-26T07:05:43;18.98;;;9.77;;
21152;SDS011;10734;44.792;20.482;2024-02-26T07:08:11;18.30;;;10.25;;
21152;SDS011;10734;44.792;20.482;2024-02-26T07:10:39;18.65;;;11.15;;
21152;SDS011;10734;44.792;20.482;2024-02-26T07:13:06;18.65;;;10.32;;
21152;SDS011;10734;44.792;20.482;2024-02-26T07:15:32;14.82;;;10.15;;
21152;SDS011;10734;44.792;20.482;2024-02-26T07:17:59;21.35;;;10.50;;
21152;SDS011;10734;44.792;20.482;2024-02-26T07:20:30;17.95;;;10.57;;
21152;SDS011;10734;44.792;20.482;2024-02-26T07:22:59;18.35;;;9.95;;
21152;SDS011;10734;44.792;20.482;2024-02-26T07:25:26;20.75;;;10.57;;
21152;SDS011;10734;44.792;20.482;2024-02-26T07:27:53;17.10;;;11.13;;
21152;SDS011;10734;44.792;20.482;2024-02-26T07:30:19;18.92;;;10.52;;
21152;SDS011;10734;44.792;20.482;2024-02-26T07:32:48;16.77;;;11.60;;
21152;SDS011;10734;44.792;20.482;2024-02-26T07:35:16;17.88;;;11.02;;
21152;SDS011;10734;44.792;20.482;2024-02-26T07:37:44;16.35;;;10.15;;
21152;SDS011;10734;44.792;20.482;2024-02-26T07:40:10;23.65;;;10.70;;
21152;SDS011;10734;44.792;20.482;2024-02-26T07:42:37;18.10;;;9.68;;
21152;SDS011;10734;44.792;20.482;2024-02-26T07:45:04;17.42;;;10.15;;
21152;SDS011;10734;44.792;20.482;2024-02-26T07:47:31;22.67;;;10.35;;
21152;SDS011;10734;44.792;20.482;2024-02-26T07:50:01;20.70;;;10.13;;
21152;SDS011;10734;44.792;20.482;2024-02-26T07:52:28;19.00;;;9.95;;
21152;SDS011;10734;44.792;20.482;2024-02-26T07:54:54;21.60;;;9.98;;
21152;SDS011;10734;44.792;20.482;2024-02-26T07:57:21;16.70;;;8.88;;
21152;SDS011;10734;44.792;20.482;2024-02-26T07:59:48;17.40;;;7.78;;
21152;SDS011;10734;44.792;20.482;2024-02-26T08:02:16;13.52;;;7.45;;
21152;SDS011;10734;44.792;20.482;2024-02-26T08:04:43;11.40;;;7.60;;
21152;SDS011;10734;44.792;20.482;2024-02-26T08:07:10;10.95;;;6.80;;
21152;SDS011;10734;44.792;20.482;2024-02-26T08:09:36;12.57;;;7.00;;
21152;SDS011;10734;44.792;20.482;2024-02-26T08:12:03;12.13;;;6.55;;
21152;SDS011;10734;44.792;20.482;2024-02-26T08:14:30;13.13;;;7.32;;
21152;SDS011;10734;44.792;20.482;2024-02-26T08:16:59;13.02;;;7.57;;
21152;SDS011;10734;44.792;20.482;2024-02-26T08:19:26;13.00;;;6.90;;
21152;SDS011;10734;44.792;20.482;2024-02-26T08:21:52;11.50;;;6.43;;
21152;SDS011;10734;44.792;20.482;2024-02-26T08:24:19;13.85;;;7.20;;
21152;SDS011;10734;44.792;20.482;2024-02-26T08:26:46;11.82;;;6.05;;
21152;SDS011;10734;44.792;20.482;2024-02-26T08:29:12;9.13;;;5.65;;
21152;SDS011;10734;44.792;20.482;2024-02-26T08:31:39;10.82;;;6.00;;
21152;SDS011;10734;44.792;20.482;2024-02-26T08:34:05;9.20;;;5.70;;
21152;SDS011;10734;44.792;20.482;2024-02-26T08:36:33;10.38;;;5.88;;
21152;SDS011;10734;44.792;20.482;2024-02-26T08:39:00;11.00;;;5.47;;
21152;SDS011;10734;44.792;20.482;2024-02-26T08:41:27;9.73;;;6.32;;
21152;SDS011;10734;44.792;20.482;2024-02-26T08:43:53;13.52;;;5.75;;
21152;SDS011;10734;44.792;20.482;2024-02-26T08:46:21;10.27;;;5.65;;
21152;SDS011;10734;44.792;20.482;2024-02-26T08:48:47;14.00;;;5.55;;
21152;SDS011;10734;44.792;20.482;2024-02-26T08:51:14;15.82;;;5.97;;
21152;SDS011;10734;44.792;20.482;2024-02-26T08:53:41;22.55;;;6.07;;
21152;SDS011;10734;44.792;20.482;2024-02-26T08:56:09;13.40;;;6.13;;
21152;SDS011;10734;44.792;20.482;2024-02-26T08:58:44;8.18;;;5.43;;
21152;SDS011;10734;44.792;20.482;2024-02-26T09:01:12;14.60;;;5.72;;
21152;SDS011;10734;44.792;20.482;2024-02-26T09:03:39;16.17;;;6.05;;
21152;SDS011;10734;44.792;20.482;2024-02-26T09:06:06;8.25;;;5.07;;
21152;SDS011;10734;44.792;20.482;2024-02-26T09:08:33;14.68;;;4.93;;
21152;SDS011;10734;44.792;20.482;2024-02-26T09:11:02;10.32;;;5.22;;
21152;SDS011;10734;44.792;20.482;2024-02-26T09:13:30;8.82;;;5.07;;
21152;SDS011;10734;44.792;20.482;2024-02-26T09:15:56;12.35;;;5.45;;
21152;SDS011;10734;44.792;20.482;2024-02-26T09:18:23;9.52;;;4.95;;
21152;SDS011;10734;44.792;20.482;2024-02-26T09:20:50;12.35;;;5.70;;
21152;SDS011;10734;44.792;20.482;2024-02-26T09:23:17;12.05;;;5.40;;
21152;SDS011;10734;44.792;20.482;2024-02-26T09:25:43;12.05;;;5.68;;
21152;SDS011;10734;44.792;20.482;2024-02-26T09:28:10;8.60;;;5.05;;
21152;SDS011;10734;44.792;20.482;2024-02-26T09:30:37;9.70;;;5.55;;
21152;SDS011;10734;44.792;20.482;2024-02-26T09:33:05;8.70;;;4.90;;
21152;SDS011;10734;44.792;20.482;2024-02-26T09:35:31;7.53;;;4.57;;
21152;SDS011;10734;44.792;20.482;2024-02-26T09:37:58;11.23;;;5.47;;
21152;SDS011;10734;44.792;20.482;2024-02-26T09:40:24;9.63;;;4.78;;
21152;SDS011;10734;44.792;20.482;2024-02-26T09:42:52;9.60;;;5.25;;
21152;SDS011;10734;44.792;20.482;2024-02-26T09:45:19;19.08;;;10.63;;
21152;SDS011;10734;44.792;20.482;2024-02-26T09:47:48;29.92;;;13.75;;
21152;SDS011;10734;44.792;20.482;2024-02-26T09:50:16;9.23;;;6.15;;
21152;SDS011;10734;44.792;20.482;2024-02-26T09:52:44;10.73;;;6.75;;
21152;SDS011;10734;44.792;20.482;2024-02-26T09:55:11;11.90;;;5.13;;
21152;SDS011;10734;44.792;20.482;2024-02-26T09:57:37;9.27;;;5.18;;
21152;SDS011;10734;44.792;20.482;2024-02-26T10:00:05;9.60;;;5.30;;
21152;SDS011;10734;44.792;20.482;2024-02-26T10:02:35;6.97;;;4.43;;
21152;SDS011;10734;44.792;20.482;2024-02-26T10:05:03;9.18;;;5.50;;
21152;SDS011;10734;44.792;20.482;2024-02-26T10:07:32;7.88;;;5.35;;
21152;SDS011;10734;44.792;20.482;2024-02-26T10:09:59;7.07;;;5.13;;
21152;SDS011;10734;44.792;20.482;2024-02-26T10:12:26;15.75;;;6.22;;
21152;SDS011;10734;44.792;20.482;2024-02-26T10:14:54;8.27;;;4.80;;
21152;SDS011;10734;44.792;20.482;2024-02-26T10:17:21;6.40;;;4.47;;
21152;SDS011;10734;44.792;20.482;2024-02-26T10:19:48;10.10;;;5.50;;
21152;SDS011;10734;44.792;20.482;2024-02-26T10:22:15;14.30;;;5.30;;
21152;SDS011;10734;44.792;20.482;2024-02-26T10:24:41;8.75;;;5.03;;
21152;SDS011;10734;44.792;20.482;2024-02-26T10:27:08;10.70;;;4.90;;
21152;SDS011;10734;44.792;20.482;2024-02-26T10:29:36;8.32;;;5.05;;
21152;SDS011;10734;44.792;20.482;2024-02-26T10:32:03;11.55;;;5.13;;
21152;SDS011;10734;44.792;20.482;2024-02-26T10:34:30;8.45;;;4.60;;
21152;SDS011;10734;44.792;20.482;2024-02-26T10:36:57;9.25;;;5.18;;
21152;SDS011;10734;44.792;20.482;2024-02-26T10:39:24;8.40;;;5.15;;
21152;SDS011;10734;44.792;20.482;2024-02-26T10:41:51;8.38;;;5.22;;
21152;SDS011;10734;44.792;20.482;2024-02-26T10:44:18;9.25;;;5.03;;
21152;SDS011;10734;44.792;20.482;2024-02-26T10:46:48;8.35;;;4.60;;
21152;SDS011;10734;44.792;20.482;2024-02-26T10:49:16;7.90;;;4.53;;
21152;SDS011;10734;44.792;20.482;2024-02-26T10:51:45;10.10;;;4.90;;
21152;SDS011;10734;44.792;20.482;2024-02-26T10:54:23;13.52;;;4.78;;
21152;SDS011;10734;44.792;20.482;2024-02-26T10:56:50;9.50;;;4.70;;
21152;SDS011;10734;44.792;20.482;2024-02-26T10:59:17;8.15;;;4.60;;
21152;SDS011;10734;44.792;20.482;2024-02-26T11:01:48;7.65;;;4.72;;
21152;SDS011;10734;44.792;20.482;2024-02-26T11:04:16;8.13;;;4.43;;
21152;SDS011;10734;44.792;20.482;2024-02-26T11:06:47;11.00;;;4.35;;
21152;SDS011;10734;44.792;20.482;2024-02-26T11:09:15;9.85;;;4.55;;
21152;SDS011;10734;44.792;20.482;2024-02-26T11:11:42;6.85;;;4.32;;
21152;SDS011;10734;44.792;20.482;2024-02-26T11:14:10;11.20;;;4.53;;
21152;SDS011;10734;44.792;20.482;2024-02-26T11:16:38;10.43;;;4.32;;
21152;SDS011;10734;44.792;20.482;2024-02-26T11:19:06;6.43;;;4.28;;
21152;SDS011;10734;44.792;20.482;2024-02-26T11:21:35;9.55;;;4.80;;
21152;SDS011;10734;44.792;20.482;2024-02-26T11:24:08;9.88;;;4.40;;
21152;SDS011;10734;44.792;20.482;2024-02-26T11:26:39;10.27;;;4.70;;
21152;SDS011;10734;44.792;20.482;2024-02-26T11:29:08;6.07;;;4.00;;
21152;SDS011;10734;44.792;20.482;2024-02-26T11:31:37;5.88;;;4.15;;
21152;SDS011;10734;44.792;20.482;2024-02-26T11:34:03;7.05;;;4.03;;
21152;SDS011;10734;44.792;20.482;2024-02-26T11:36:30;5.55;;;4.07;;
21152;SDS011;10734;44.792;20.482;2024-02-26T11:38:57;7.00;;;3.60;;
21152;SDS011;10734;44.792;20.482;2024-02-26T11:41:24;8.02;;;3.97;;
21152;SDS011;10734;44.792;20.482;2024-02-26T11:43:57;10.68;;;4.50;;
21152;SDS011;10734;44.792;20.482;2024-02-26T11:46:26;9.30;;;4.10;;
21152;SDS011;10734;44.792;20.482;2024-02-26T11:51:38;6.43;;;3.88;;
21152;SDS011;10734;44.792;20.482;2024-02-26T11:54:08;7.40;;;3.92;;
21152;SDS011;10734;44.792;20.482;2024-02-26T11:56:34;9.63;;;3.90;;
21152;SDS011;10734;44.792;20.482;2024-02-26T12:01:44;5.22;;;3.85;;
21152;SDS011;10734;44.792;20.482;2024-02-26T12:04:12;7.65;;;3.60;;
21152;SDS011;10734;44.792;20.482;2024-02-26T12:06:48;6.88;;;3.92;;
21152;SDS011;10734;44.792;20.482;2024-02-26T12:11:59;5.70;;;3.38;;
21152;SDS011;10734;44.792;20.482;2024-02-26T12:14:25;6.03;;;3.50;;
21152;SDS011;10734;44.792;20.482;2024-02-26T12:16:53;8.75;;;3.65;;
21152;SDS011;10734;44.792;20.482;2024-02-26T12:19:21;7.25;;;4.10;;
21152;SDS011;10734;44.792;20.482;2024-02-26T12:22:16;10.57;;;4.20;;
21152;SDS011;10734;44.792;20.482;2024-02-26T12:24:43;9.20;;;3.67;;
21152;SDS011;10734;44.792;20.482;2024-02-26T12:27:09;7.75;;;3.30;;
21152;SDS011;10734;44.792;20.482;2024-02-26T12:29:36;7.65;;;3.42;;
21152;SDS011;10734;44.792;20.482;2024-02-26T12:32:03;9.82;;;4.20;;
21152;SDS011;10734;44.792;20.482;2024-02-26T12:34:33;6.70;;;3.95;;
21152;SDS011;10734;44.792;20.482;2024-02-26T12:37:00;7.30;;;3.15;;
21152;SDS011;10734;44.792;20.482;2024-02-26T12:39:27;5.32;;;3.40;;
21152;SDS011;10734;44.792;20.482;2024-02-26T12:41:55;5.75;;;2.90;;
21152;SDS011;10734;44.792;20.482;2024-02-26T12:44:26;7.35;;;3.47;;
21152;SDS011;10734;44.792;20.482;2024-02-26T12:47:02;9.40;;;3.65;;
21152;SDS011;10734;44.792;20.482;2024-02-26T12:49:30;9.48;;;3.70;;
21152;SDS011;10734;44.792;20.482;2024-02-26T12:51:57;5.90;;;3.22;;
21152;SDS011;10734;44.792;20.482;2024-02-26T12:54:28;4.95;;;2.75;;
21152;SDS011;10734;44.792;20.482;2024-02-26T12:56:59;6.93;;;3.22;;
21152;SDS011;10734;44.792;20.482;2024-02-26T12:59:30;11.57;;;4.60;;
21152;SDS011;10734;44.792;20.482;2024-02-26T13:01:57;9.18;;;4.07;;
21152;SDS011;10734;44.792;20.482;2024-02-26T13:04:25;5.72;;;3.65;;
21152;SDS011;10734;44.792;20.482;2024-02-26T13:06:52;5.40;;;3.22;;
21152;SDS011;10734;44.792;20.482;2024-02-26T13:09:19;6.40;;;2.88;;
21152;SDS011;10734;44.792;20.482;2024-02-26T13:11:55;10.50;;;2.78;;
21152;SDS011;10734;44.792;20.482;2024-02-26T13:14:22;8.20;;;2.70;;
21152;SDS011;10734;44.792;20.482;2024-02-26T13:16:55;8.20;;;3.53;;
21152;SDS011;10734;44.792;20.482;2024-02-26T13:19:22;10.00;;;3.10;;
21152;SDS011;10734;44.792;20.482;2024-02-26T13:21:49;6.85;;;2.58;;
21152;SDS011;10734;44.792;20.482;2024-02-26T13:24:16;5.95;;;2.78;;
21152;SDS011;10734;44.792;20.482;2024-02-26T13:26:46;6.38;;;3.13;;
21152;SDS011;10734;44.792;20.482;2024-02-26T13:29:19;7.80;;;2.70;;
21152;SDS011;10734;44.792;20.482;2024-02-26T13:31:45;7.85;;;2.75;;
21152;SDS011;10734;44.792;20.482;2024-02-26T13:36:53;6.10;;;2.50;;
21152;SDS011;10734;44.792;20.482;2024-02-26T13:39:24;5.43;;;2.97;;
21152;SDS011;10734;44.792;20.482;2024-02-26T13:41:51;6.55;;;2.50;;
21152;SDS011;10734;44.792;20.482;2024-02-26T13:44:21;10.73;;;2.60;;
21152;SDS011;10734;44.792;20.482;2024-02-26T13:46:48;7.07;;;2.15;;
21152;SDS011;10734;44.792;20.482;2024-02-26T13:49:17;9.00;;;2.80;;
21152;SDS011;10734;44.792;20.482;2024-02-26T13:51:44;6.50;;;2.60;;
21152;SDS011;10734;44.792;20.482;2024-02-26T13:54:11;8.02;;;3.08;;
21152;SDS011;10734;44.792;20.482;2024-02-26T13:56:40;7.93;;;3.53;;
21152;SDS011;10734;44.792;20.482;2024-02-26T13:59:08;9.93;;;3.20;;
21152;SDS011;10734;44.792;20.482;2024-02-26T14:01:35;5.50;;;2.70;;
21152;SDS011;10734;44.792;20.482;2024-02-26T14:04:03;5.88;;;2.72;;
21152;SDS011;10734;44.792;20.482;2024-02-26T14:06:31;6.95;;;3.17;;
21152;SDS011;10734;44.792;20.482;2024-02-26T14:08:58;7.40;;;3.10;;
21152;SDS011;10734;44.792;20.482;2024-02-26T14:11:25;7.95;;;3.00;;
21152;SDS011;10734;44.792;20.482;2024-02-26T14:13:55;9.68;;;3.75;;
21152;SDS011;10734;44.792;20.482;2024-02-26T14:16:22;7.43;;;3.30;;
21152;SDS011;10734;44.792;20.482;2024-02-26T14:18:48;6.38;;;3.80;;
21152;SDS011;10734;44.792;20.482;2024-02-26T14:21:15;7.97;;;4.13;;
21152;SDS011;10734;44.792;20.482;2024-02-26T14:23:43;9.52;;;3.95;;
21152;SDS011;10734;44.792;20.482;2024-02-26T14:26:10;6.25;;;3.55;;
21152;SDS011;10734;44.792;20.482;2024-02-26T14:28:37;7.97;;;3.63;;
21152;SDS011;10734;44.792;20.482;2024-02-26T14:31:05;9.23;;;4.15;;
21152;SDS011;10734;44.792;20.482;2024-02-26T14:33:38;7.80;;;4.47;;
21152;SDS011;10734;44.792;20.482;2024-02-26T14:36:07;10.23;;;4.75;;